Bloomington (BMI/KBMI)

Map

Destinations

Information

Location
Bloomington, IL
Local Time
01:27 / 1:27 am
GMT Time
07:27 / 7:27 am
Gates
A1
No FAA reported delays
METAR KBMI 200656Z AUTO 21016KT 10SM CLR 01/M03 A2988 RMK AO2 SLP144 T00061028
TAF KBMI 200541Z 2006/2106 20016KT P6SM BKN250 WS018/24050KT FM201400 22013KT P6SM BKN150 FM201600 22014KT P6SM BKN012 FM210000 20007KT 4SM BR VCSH OVC008